sensor_id;sensor_type;location;lat;lon;timestamp;P1;durP1;ratioP1;P2;durP2;ratioP2
3347;SDS011;1687;49.540;8.574;2022-11-15T00:00:53;2.73;;;1.80;;
3347;SDS011;1687;49.540;8.574;2022-11-15T00:03:19;12.53;;;1.97;;
3347;SDS011;1687;49.540;8.574;2022-11-15T00:05:48;1.70;;;0.80;;
3347;SDS011;1687;49.540;8.574;2022-11-15T00:08:14;3.30;;;1.87;;
3347;SDS011;1687;49.540;8.574;2022-11-15T00:10:40;40.10;;;2.90;;
3347;SDS011;1687;49.540;8.574;2022-11-15T00:13:06;2.23;;;1.53;;
3347;SDS011;1687;49.540;8.574;2022-11-15T00:15:40;3.17;;;1.53;;
3347;SDS011;1687;49.540;8.574;2022-11-15T00:18:09;2.63;;;1.37;;
3347;SDS011;1687;49.540;8.574;2022-11-15T00:20:38;1.73;;;1.10;;
3347;SDS011;1687;49.540;8.574;2022-11-15T00:23:05;6.10;;;2.07;;
3347;SDS011;1687;49.540;8.574;2022-11-15T00:25:32;3.67;;;1.93;;
3347;SDS011;1687;49.540;8.574;2022-11-15T00:27:58;4.20;;;1.20;;
3347;SDS011;1687;49.540;8.574;2022-11-15T00:30:25;10.33;;;2.00;;
3347;SDS011;1687;49.540;8.574;2022-11-15T00:32:52;2.43;;;1.93;;
3347;SDS011;1687;49.540;8.574;2022-11-15T00:35:18;5.67;;;1.63;;
3347;SDS011;1687;49.540;8.574;2022-11-15T00:37:45;1.67;;;1.10;;
3347;SDS011;1687;49.540;8.574;2022-11-15T00:40:12;4.93;;;1.70;;
3347;SDS011;1687;49.540;8.574;2022-11-15T00:42:38;7.53;;;2.10;;
3347;SDS011;1687;49.540;8.574;2022-11-15T00:45:06;4.43;;;1.90;;
3347;SDS011;1687;49.540;8.574;2022-11-15T00:47:32;2.20;;;1.57;;
3347;SDS011;1687;49.540;8.574;2022-11-15T00:49:58;3.70;;;1.80;;
3347;SDS011;1687;49.540;8.574;2022-11-15T00:52:23;4.20;;;1.77;;
3347;SDS011;1687;49.540;8.574;2022-11-15T00:54:49;3.67;;;1.67;;
3347;SDS011;1687;49.540;8.574;2022-11-15T00:57:15;3.20;;;1.37;;
3347;SDS011;1687;49.540;8.574;2022-11-15T00:59:41;3.50;;;2.13;;
3347;SDS011;1687;49.540;8.574;2022-11-15T01:02:07;3.40;;;1.43;;
3347;SDS011;1687;49.540;8.574;2022-11-15T01:04:32;6.73;;;1.40;;
3347;SDS011;1687;49.540;8.574;2022-11-15T01:06:58;6.40;;;2.37;;
3347;SDS011;1687;49.540;8.574;2022-11-15T01:09:24;5.60;;;1.70;;
3347;SDS011;1687;49.540;8.574;2022-11-15T01:11:49;5.60;;;1.90;;
3347;SDS011;1687;49.540;8.574;2022-11-15T01:14:15;1.87;;;1.17;;
3347;SDS011;1687;49.540;8.574;2022-11-15T01:16:41;6.70;;;1.93;;
3347;SDS011;1687;49.540;8.574;2022-11-15T01:19:06;4.07;;;1.97;;
3347;SDS011;1687;49.540;8.574;2022-11-15T01:21:32;1.67;;;1.13;;
3347;SDS011;1687;49.540;8.574;2022-11-15T01:23:58;2.67;;;1.47;;
3347;SDS011;1687;49.540;8.574;2022-11-15T01:26:23;3.97;;;2.17;;
3347;SDS011;1687;49.540;8.574;2022-11-15T01:28:50;5.90;;;1.83;;
3347;SDS011;1687;49.540;8.574;2022-11-15T01:31:17;2.63;;;1.07;;
3347;SDS011;1687;49.540;8.574;2022-11-15T01:33:45;3.00;;;2.20;;
3347;SDS011;1687;49.540;8.574;2022-11-15T01:36:21;3.20;;;1.47;;
3347;SDS011;1687;49.540;8.574;2022-11-15T01:38:54;3.63;;;1.70;;
3347;SDS011;1687;49.540;8.574;2022-11-15T01:41:23;3.47;;;1.93;;
3347;SDS011;1687;49.540;8.574;2022-11-15T01:43:53;1.97;;;1.07;;
3347;SDS011;1687;49.540;8.574;2022-11-15T01:46:33;22.10;;;2.40;;
3347;SDS011;1687;49.540;8.574;2022-11-15T01:49:04;4.90;;;1.60;;
3347;SDS011;1687;49.540;8.574;2022-11-15T01:51:37;1.83;;;1.13;;
3347;SDS011;1687;49.540;8.574;2022-11-15T01:54:07;1.67;;;0.90;;
3347;SDS011;1687;49.540;8.574;2022-11-15T01:56:45;2.27;;;1.30;;
3347;SDS011;1687;49.540;8.574;2022-11-15T01:59:19;1.77;;;1.07;;
3347;SDS011;1687;49.540;8.574;2022-11-15T02:01:46;3.70;;;2.07;;
3347;SDS011;1687;49.540;8.574;2022-11-15T02:04:13;1.60;;;1.13;;
3347;SDS011;1687;49.540;8.574;2022-11-15T02:06:42;2.43;;;2.13;;
3347;SDS011;1687;49.540;8.574;2022-11-15T02:09:09;3.33;;;1.97;;
3347;SDS011;1687;49.540;8.574;2022-11-15T02:11:36;5.73;;;1.90;;
3347;SDS011;1687;49.540;8.574;2022-11-15T02:14:02;2.20;;;1.20;;
3347;SDS011;1687;49.540;8.574;2022-11-15T02:34:12;4.60;;;2.00;;
3347;SDS011;1687;49.540;8.574;2022-11-15T02:37:11;1.87;;;1.00;;
3347;SDS011;1687;49.540;8.574;2022-11-15T02:40:06;3.83;;;1.23;;
3347;SDS011;1687;49.540;8.574;2022-11-15T02:42:36;2.37;;;1.40;;
3347;SDS011;1687;49.540;8.574;2022-11-15T02:45:33;2.30;;;1.20;;
3347;SDS011;1687;49.540;8.574;2022-11-15T02:48:05;2.90;;;1.57;;
3347;SDS011;1687;49.540;8.574;2022-11-15T02:50:32;3.73;;;1.60;;
3347;SDS011;1687;49.540;8.574;2022-11-15T02:52:58;3.43;;;1.40;;
3347;SDS011;1687;49.540;8.574;2022-11-15T02:55:25;6.00;;;2.90;;
3347;SDS011;1687;49.540;8.574;2022-11-15T03:00:58;2.20;;;1.37;;
3347;SDS011;1687;49.540;8.574;2022-11-15T03:06:47;1.30;;;0.80;;
3347;SDS011;1687;49.540;8.574;2022-11-15T03:12:22;2.60;;;1.37;;
3347;SDS011;1687;49.540;8.574;2022-11-15T03:15:32;3.00;;;1.80;;
3347;SDS011;1687;49.540;8.574;2022-11-15T03:18:02;1.57;;;1.00;;
3347;SDS011;1687;49.540;8.574;2022-11-15T03:20:35;3.10;;;1.97;;
3347;SDS011;1687;49.540;8.574;2022-11-15T03:23:06;2.60;;;1.47;;
3347;SDS011;1687;49.540;8.574;2022-11-15T03:25:36;5.07;;;2.10;;
3347;SDS011;1687;49.540;8.574;2022-11-15T03:28:07;3.60;;;1.10;;
3347;SDS011;1687;49.540;8.574;2022-11-15T03:30:39;2.77;;;1.13;;
3347;SDS011;1687;49.540;8.574;2022-11-15T03:33:06;3.20;;;2.17;;
3347;SDS011;1687;49.540;8.574;2022-11-15T03:35:35;4.87;;;2.33;;
3347;SDS011;1687;49.540;8.574;2022-11-15T03:38:07;3.67;;;1.67;;
3347;SDS011;1687;49.540;8.574;2022-11-15T03:40:45;1.97;;;1.20;;
3347;SDS011;1687;49.540;8.574;2022-11-15T03:43:30;2.60;;;1.57;;
3347;SDS011;1687;49.540;8.574;2022-11-15T03:46:07;6.07;;;1.60;;
3347;SDS011;1687;49.540;8.574;2022-11-15T03:48:41;4.10;;;1.33;;
3347;SDS011;1687;49.540;8.574;2022-11-15T03:51:14;1.53;;;0.80;;
3347;SDS011;1687;49.540;8.574;2022-11-15T03:53:41;13.60;;;2.07;;
3347;SDS011;1687;49.540;8.574;2022-11-15T03:56:07;4.00;;;1.87;;
3347;SDS011;1687;49.540;8.574;2022-11-15T03:58:32;3.03;;;1.30;;
3347;SDS011;1687;49.540;8.574;2022-11-15T04:00:58;4.13;;;1.40;;
3347;SDS011;1687;49.540;8.574;2022-11-15T04:03:27;2.90;;;1.00;;
3347;SDS011;1687;49.540;8.574;2022-11-15T04:05:52;1.87;;;0.87;;
3347;SDS011;1687;49.540;8.574;2022-11-15T04:08:18;2.30;;;1.30;;
3347;SDS011;1687;49.540;8.574;2022-11-15T04:10:44;4.30;;;1.27;;
3347;SDS011;1687;49.540;8.574;2022-11-15T04:13:09;1.83;;;1.40;;
3347;SDS011;1687;49.540;8.574;2022-11-15T04:15:35;3.00;;;1.10;;
3347;SDS011;1687;49.540;8.574;2022-11-15T04:18:01;1.30;;;0.87;;
3347;SDS011;1687;49.540;8.574;2022-11-15T04:20:28;2.60;;;1.27;;
3347;SDS011;1687;49.540;8.574;2022-11-15T04:23:21;4.63;;;2.23;;
3347;SDS011;1687;49.540;8.574;2022-11-15T04:26:11;1.93;;;1.20;;
3347;SDS011;1687;49.540;8.574;2022-11-15T04:28:40;1.93;;;1.17;;
3347;SDS011;1687;49.540;8.574;2022-11-15T04:31:41;2.10;;;1.10;;
3347;SDS011;1687;49.540;8.574;2022-11-15T04:34:07;1.83;;;1.00;;
3347;SDS011;1687;49.540;8.574;2022-11-15T04:36:33;2.23;;;1.27;;
3347;SDS011;1687;49.540;8.574;2022-11-15T04:39:17;3.80;;;1.83;;
3347;SDS011;1687;49.540;8.574;2022-11-15T04:41:43;3.03;;;1.53;;
3347;SDS011;1687;49.540;8.574;2022-11-15T04:44:08;4.23;;;2.33;;
3347;SDS011;1687;49.540;8.574;2022-11-15T04:46:34;1.57;;;0.90;;
3347;SDS011;1687;49.540;8.574;2022-11-15T04:49:00;3.37;;;2.00;;
3347;SDS011;1687;49.540;8.574;2022-11-15T04:51:26;3.17;;;1.10;;
3347;SDS011;1687;49.540;8.574;2022-11-15T04:53:52;3.80;;;1.20;;
3347;SDS011;1687;49.540;8.574;2022-11-15T04:56:18;3.77;;;1.43;;
3347;SDS011;1687;49.540;8.574;2022-11-15T04:58:44;1.87;;;1.10;;
3347;SDS011;1687;49.540;8.574;2022-11-15T05:01:10;6.73;;;1.70;;
3347;SDS011;1687;49.540;8.574;2022-11-15T05:03:39;6.97;;;1.93;;
3347;SDS011;1687;49.540;8.574;2022-11-15T05:06:25;1.80;;;1.30;;
3347;SDS011;1687;49.540;8.574;2022-11-15T05:08:51;1.93;;;0.97;;
3347;SDS011;1687;49.540;8.574;2022-11-15T05:11:17;2.17;;;1.17;;
3347;SDS011;1687;49.540;8.574;2022-11-15T05:13:43;2.10;;;0.90;;
3347;SDS011;1687;49.540;8.574;2022-11-15T05:16:08;1.87;;;1.03;;
3347;SDS011;1687;49.540;8.574;2022-11-15T05:18:34;2.20;;;1.00;;
3347;SDS011;1687;49.540;8.574;2022-11-15T05:21:04;2.07;;;1.13;;
3347;SDS011;1687;49.540;8.574;2022-11-15T05:23:31;3.37;;;1.30;;
3347;SDS011;1687;49.540;8.574;2022-11-15T05:26:00;4.63;;;2.13;;
3347;SDS011;1687;49.540;8.574;2022-11-15T05:28:27;2.87;;;1.83;;
3347;SDS011;1687;49.540;8.574;2022-11-15T05:30:53;3.57;;;1.80;;
3347;SDS011;1687;49.540;8.574;2022-11-15T05:33:33;3.17;;;1.30;;
3347;SDS011;1687;49.540;8.574;2022-11-15T05:36:02;2.40;;;1.37;;
3347;SDS011;1687;49.540;8.574;2022-11-15T05:38:31;7.83;;;2.10;;
3347;SDS011;1687;49.540;8.574;2022-11-15T05:40:59;3.83;;;2.60;;
3347;SDS011;1687;49.540;8.574;2022-11-15T05:43:25;8.50;;;2.03;;
3347;SDS011;1687;49.540;8.574;2022-11-15T05:45:52;7.33;;;1.63;;
3347;SDS011;1687;49.540;8.574;2022-11-15T05:48:18;3.30;;;1.33;;
3347;SDS011;1687;49.540;8.574;2022-11-15T05:50:45;1.40;;;0.97;;
3347;SDS011;1687;49.540;8.574;2022-11-15T05:53:12;5.70;;;1.30;;
3347;SDS011;1687;49.540;8.574;2022-11-15T05:55:40;3.10;;;1.27;;
3347;SDS011;1687;49.540;8.574;2022-11-15T05:58:06;3.07;;;1.40;;
3347;SDS011;1687;49.540;8.574;2022-11-15T06:00:32;1.80;;;1.20;;
3347;SDS011;1687;49.540;8.574;2022-11-15T06:02:59;1.67;;;1.00;;
3347;SDS011;1687;49.540;8.574;2022-11-15T06:05:24;8.30;;;1.80;;
3347;SDS011;1687;49.540;8.574;2022-11-15T06:07:50;1.50;;;0.90;;
3347;SDS011;1687;49.540;8.574;2022-11-15T06:10:16;3.53;;;1.83;;
3347;SDS011;1687;49.540;8.574;2022-11-15T06:12:42;3.70;;;1.97;;
3347;SDS011;1687;49.540;8.574;2022-11-15T06:15:07;5.43;;;1.87;;
3347;SDS011;1687;49.540;8.574;2022-11-15T06:17:33;2.03;;;1.20;;
3347;SDS011;1687;49.540;8.574;2022-11-15T06:19:59;1.70;;;1.40;;
3347;SDS011;1687;49.540;8.574;2022-11-15T06:22:25;4.70;;;2.10;;
3347;SDS011;1687;49.540;8.574;2022-11-15T06:24:50;5.10;;;2.20;;
3347;SDS011;1687;49.540;8.574;2022-11-15T06:27:16;7.97;;;1.60;;
3347;SDS011;1687;49.540;8.574;2022-11-15T06:29:42;2.70;;;1.60;;
3347;SDS011;1687;49.540;8.574;2022-11-15T06:32:07;3.07;;;1.70;;
3347;SDS011;1687;49.540;8.574;2022-11-15T06:34:33;3.53;;;1.67;;
3347;SDS011;1687;49.540;8.574;2022-11-15T06:37:00;3.13;;;1.13;;
3347;SDS011;1687;49.540;8.574;2022-11-15T06:39:26;3.10;;;1.57;;
3347;SDS011;1687;49.540;8.574;2022-11-15T06:41:52;3.20;;;1.83;;
3347;SDS011;1687;49.540;8.574;2022-11-15T06:44:17;2.87;;;1.37;;
3347;SDS011;1687;49.540;8.574;2022-11-15T06:46:43;1.97;;;1.33;;
3347;SDS011;1687;49.540;8.574;2022-11-15T06:49:08;4.33;;;1.93;;
3347;SDS011;1687;49.540;8.574;2022-11-15T06:51:34;2.47;;;1.47;;
3347;SDS011;1687;49.540;8.574;2022-11-15T06:54:00;3.17;;;1.43;;
3347;SDS011;1687;49.540;8.574;2022-11-15T06:56:26;2.80;;;1.73;;
3347;SDS011;1687;49.540;8.574;2022-11-15T06:58:51;2.80;;;1.20;;
3347;SDS011;1687;49.540;8.574;2022-11-15T07:01:17;2.93;;;1.50;;
3347;SDS011;1687;49.540;8.574;2022-11-15T07:03:42;4.43;;;2.60;;
3347;SDS011;1687;49.540;8.574;2022-11-15T07:06:08;2.37;;;1.07;;
3347;SDS011;1687;49.540;8.574;2022-11-15T07:08:35;2.57;;;1.13;;
3347;SDS011;1687;49.540;8.574;2022-11-15T07:11:03;4.00;;;1.93;;
3347;SDS011;1687;49.540;8.574;2022-11-15T07:13:31;4.00;;;2.00;;
3347;SDS011;1687;49.540;8.574;2022-11-15T07:15:58;3.43;;;1.57;;
3347;SDS011;1687;49.540;8.574;2022-11-15T07:18:28;2.10;;;1.10;;
3347;SDS011;1687;49.540;8.574;2022-11-15T07:20:53;6.30;;;1.70;;
3347;SDS011;1687;49.540;8.574;2022-11-15T07:23:19;3.80;;;1.73;;
3347;SDS011;1687;49.540;8.574;2022-11-15T07:25:44;5.10;;;1.93;;
3347;SDS011;1687;49.540;8.574;2022-11-15T07:28:10;2.70;;;1.17;;
3347;SDS011;1687;49.540;8.574;2022-11-15T07:30:36;1.50;;;1.00;;
3347;SDS011;1687;49.540;8.574;2022-11-15T07:33:01;5.47;;;1.83;;
3347;SDS011;1687;49.540;8.574;2022-11-15T07:35:28;5.53;;;1.47;;
3347;SDS011;1687;49.540;8.574;2022-11-15T07:37:55;2.30;;;1.17;;
3347;SDS011;1687;49.540;8.574;2022-11-15T07:40:22;4.87;;;1.47;;
3347;SDS011;1687;49.540;8.574;2022-11-15T07:42:49;5.37;;;1.77;;
3347;SDS011;1687;49.540;8.574;2022-11-15T07:45:18;2.97;;;1.23;;
3347;SDS011;1687;49.540;8.574;2022-11-15T07:47:46;6.00;;;2.43;;
3347;SDS011;1687;49.540;8.574;2022-11-15T07:50:16;3.17;;;1.03;;
3347;SDS011;1687;49.540;8.574;2022-11-15T07:52:42;11.23;;;2.77;;
3347;SDS011;1687;49.540;8.574;2022-11-15T07:55:08;3.07;;;1.40;;
3347;SDS011;1687;49.540;8.574;2022-11-15T07:57:35;3.80;;;1.80;;
3347;SDS011;1687;49.540;8.574;2022-11-15T08:00:01;6.63;;;1.83;;
3347;SDS011;1687;49.540;8.574;2022-11-15T08:02:31;4.47;;;1.30;;
3347;SDS011;1687;49.540;8.574;2022-11-15T08:04:57;2.40;;;1.20;;
3347;SDS011;1687;49.540;8.574;2022-11-15T08:07:22;4.20;;;2.53;;
3347;SDS011;1687;49.540;8.574;2022-11-15T08:09:48;3.10;;;1.30;;
3347;SDS011;1687;49.540;8.574;2022-11-15T08:12:14;3.30;;;1.80;;
3347;SDS011;1687;49.540;8.574;2022-11-15T08:14:39;3.97;;;1.83;;
3347;SDS011;1687;49.540;8.574;2022-11-15T08:17:05;2.93;;;1.93;;
3347;SDS011;1687;49.540;8.574;2022-11-15T08:19:31;4.03;;;2.37;;
3347;SDS011;1687;49.540;8.574;2022-11-15T08:21:57;4.13;;;2.03;;
3347;SDS011;1687;49.540;8.574;2022-11-15T08:24:22;3.13;;;1.67;;
3347;SDS011;1687;49.540;8.574;2022-11-15T08:26:48;3.00;;;1.77;;
3347;SDS011;1687;49.540;8.574;2022-11-15T08:29:14;3.60;;;1.83;;
3347;SDS011;1687;49.540;8.574;2022-11-15T08:31:39;5.07;;;1.80;;
3347;SDS011;1687;49.540;8.574;2022-11-15T08:34:05;9.10;;;2.90;;
3347;SDS011;1687;49.540;8.574;2022-11-15T08:36:31;5.27;;;2.27;;
3347;SDS011;1687;49.540;8.574;2022-11-15T08:38:57;3.73;;;1.80;;
3347;SDS011;1687;49.540;8.574;2022-11-15T08:41:33;3.03;;;1.30;;
3347;SDS011;1687;49.540;8.574;2022-11-15T08:44:02;7.33;;;2.50;;
3347;SDS011;1687;49.540;8.574;2022-11-15T08:46:27;12.57;;;3.33;;
3347;SDS011;1687;49.540;8.574;2022-11-15T08:48:54;3.30;;;2.33;;
3347;SDS011;1687;49.540;8.574;2022-11-15T08:51:19;2.27;;;1.23;;
3347;SDS011;1687;49.540;8.574;2022-11-15T08:53:45;6.33;;;2.33;;
3347;SDS011;1687;49.540;8.574;2022-11-15T08:56:11;5.37;;;2.50;;
3347;SDS011;1687;49.540;8.574;2022-11-15T08:58:39;2.50;;;1.60;;
3347;SDS011;1687;49.540;8.574;2022-11-15T09:01:05;3.17;;;1.70;;
3347;SDS011;1687;49.540;8.574;2022-11-15T09:03:31;3.33;;;0.90;;
3347;SDS011;1687;49.540;8.574;2022-11-15T09:05:58;5.23;;;2.30;;
3347;SDS011;1687;49.540;8.574;2022-11-15T09:08:26;7.43;;;2.63;;
3347;SDS011;1687;49.540;8.574;2022-11-15T09:10:55;6.40;;;2.60;;
3347;SDS011;1687;49.540;8.574;2022-11-15T09:13:21;2.87;;;1.77;;
3347;SDS011;1687;49.540;8.574;2022-11-15T09:15:47;5.33;;;2.27;;
3347;SDS011;1687;49.540;8.574;2022-11-15T09:18:12;2.13;;;1.30;;
3347;SDS011;1687;49.540;8.574;2022-11-15T09:20:38;5.73;;;2.37;;
3347;SDS011;1687;49.540;8.574;2022-11-15T09:23:04;2.17;;;1.10;;
3347;SDS011;1687;49.540;8.574;2022-11-15T09:25:31;4.20;;;1.63;;
3347;SDS011;1687;49.540;8.574;2022-11-15T09:27:57;5.73;;;1.57;;
3347;SDS011;1687;49.540;8.574;2022-11-15T09:30:23;4.37;;;2.10;;
3347;SDS011;1687;49.540;8.574;2022-11-15T09:32:50;6.60;;;1.87;;
3347;SDS011;1687;49.540;8.574;2022-11-15T09:35:15;11.00;;;2.60;;
3347;SDS011;1687;49.540;8.574;2022-11-15T09:37:41;9.40;;;2.17;;
3347;SDS011;1687;49.540;8.574;2022-11-15T09:40:11;1.70;;;1.10;;
3347;SDS011;1687;49.540;8.574;2022-11-15T09:42:53;3.13;;;1.37;;
3347;SDS011;1687;49.540;8.574;2022-11-15T09:48:10;2.33;;;1.07;;
3347;SDS011;1687;49.540;8.574;2022-11-15T09:50:53;2.30;;;1.13;;
3347;SDS011;1687;49.540;8.574;2022-11-15T09:53:26;2.63;;;1.50;;
3347;SDS011;1687;49.540;8.574;2022-11-15T09:56:14;6.13;;;1.70;;
3347;SDS011;1687;49.540;8.574;2022-11-15T10:04:44;3.73;;;1.50;;
3347;SDS011;1687;49.540;8.574;2022-11-15T10:07:18;4.60;;;2.33;;
3347;SDS011;1687;49.540;8.574;2022-11-15T10:12:40;4.23;;;2.03;;
3347;SDS011;1687;49.540;8.574;2022-11-15T10:15:13;2.70;;;1.00;;
3347;SDS011;1687;49.540;8.574;2022-11-15T10:20:49;4.67;;;1.40;;
3347;SDS011;1687;49.540;8.574;2022-11-15T10:23:32;3.90;;;1.30;;
3347;SDS011;1687;49.540;8.574;2022-11-15T10:25:59;3.10;;;1.10;;
3347;SDS011;1687;49.540;8.574;2022-11-15T10:28:28;2.20;;;1.27;;
3347;SDS011;1687;49.540;8.574;2022-11-15T10:30:56;5.50;;;1.70;;
3347;SDS011;1687;49.540;8.574;2022-11-15T10:38:50;3.30;;;1.60;;
3347;SDS011;1687;49.540;8.574;2022-11-15T10:41:17;4.93;;;1.83;;
3347;SDS011;1687;49.540;8.574;2022-11-15T10:44:02;4.60;;;2.37;;
3347;SDS011;1687;49.540;8.574;2022-11-15T10:46:31;3.30;;;2.40;;
3347;SDS011;1687;49.540;8.574;2022-11-15T10:49:18;4.70;;;3.20;;
3347;SDS011;1687;49.540;8.574;2022-11-15T10:51:47;1.70;;;1.20;;
3347;SDS011;1687;49.540;8.574;2022-11-15T10:54:25;2.40;;;1.07;;
3347;SDS011;1687;49.540;8.574;2022-11-15T10:57:04;2.70;;;0.97;;
3347;SDS011;1687;49.540;8.574;2022-11-15T10:59:42;3.17;;;1.57;;
3347;SDS011;1687;49.540;8.574;2022-11-15T11:02:28;6.83;;;2.33;;
3347;SDS011;1687;49.540;8.574;2022-11-15T11:08:04;2.67;;;1.97;;
3347;SDS011;1687;49.540;8.574;2022-11-15T11:10:54;3.67;;;1.90;;
3347;SDS011;1687;49.540;8.574;2022-11-15T11:13:24;5.47;;;2.23;;
3347;SDS011;1687;49.540;8.574;2022-11-15T11:21:44;5.47;;;2.30;;
3347;SDS011;1687;49.540;8.574;2022-11-15T11:27:32;1.50;;;0.90;;
3347;SDS011;1687;49.540;8.574;2022-11-15T11:30:29;7.90;;;1.13;;
3347;SDS011;1687;49.540;8.574;2022-11-15T11:33:20;2.97;;;2.27;;
3347;SDS011;1687;49.540;8.574;2022-11-15T11:48:22;3.50;;;2.37;;
3347;SDS011;1687;49.540;8.574;2022-11-15T11:51:18;1.70;;;1.10;;
3347;SDS011;1687;49.540;8.574;2022-11-15T11:54:00;4.27;;;2.63;;
3347;SDS011;1687;49.540;8.574;2022-11-15T11:56:47;1.77;;;1.13;;
3347;SDS011;1687;49.540;8.574;2022-11-15T12:01:43;3.37;;;1.60;;
3347;SDS011;1687;49.540;8.574;2022-11-15T12:07:13;2.47;;;1.50;;
3347;SDS011;1687;49.540;8.574;2022-11-15T12:15:22;1.30;;;0.87;;
3347;SDS011;1687;49.540;8.574;2022-11-15T12:17:52;4.40;;;1.83;;
3347;SDS011;1687;49.540;8.574;2022-11-15T12:20:24;3.27;;;1.10;;
3347;SDS011;1687;49.540;8.574;2022-11-15T12:23:07;3.43;;;1.23;;
3347;SDS011;1687;49.540;8.574;2022-11-15T12:31:51;2.23;;;1.17;;
3347;SDS011;1687;49.540;8.574;2022-11-15T12:36:53;3.30;;;0.80;;
3347;SDS011;1687;49.540;8.574;2022-11-15T12:39:19;2.50;;;1.17;;
3347;SDS011;1687;49.540;8.574;2022-11-15T12:59:53;2.07;;;1.33;;
3347;SDS011;1687;49.540;8.574;2022-11-15T13:17:47;1.63;;;1.00;;
3347;SDS011;1687;49.540;8.574;2022-11-15T13:20:18;1.63;;;0.93;;
3347;SDS011;1687;49.540;8.574;2022-11-15T13:22:49;4.03;;;1.97;;
3347;SDS011;1687;49.540;8.574;2022-11-15T13:30:40;1.90;;;1.20;;
3347;SDS011;1687;49.540;8.574;2022-11-15T13:33:22;2.53;;;1.10;;
3347;SDS011;1687;49.540;8.574;2022-11-15T13:35:56;1.70;;;0.70;;
3347;SDS011;1687;49.540;8.574;2022-11-15T13:38:28;1.50;;;0.97;;
3347;SDS011;1687;49.540;8.574;2022-11-15T13:40:58;1.40;;;1.10;;
3347;SDS011;1687;49.540;8.574;2022-11-15T13:43:38;2.33;;;1.10;;
3347;SDS011;1687;49.540;8.574;2022-11-15T13:46:05;1.33;;;0.73;;
3347;SDS011;1687;49.540;8.574;2022-11-15T13:48:32;12.90;;;0.80;;
3347;SDS011;1687;49.540;8.574;2022-11-15T13:50:59;2.93;;;1.30;;
3347;SDS011;1687;49.540;8.574;2022-11-15T13:53:28;2.93;;;1.27;;
3347;SDS011;1687;49.540;8.574;2022-11-15T13:55:57;3.70;;;1.87;;
3347;SDS011;1687;49.540;8.574;2022-11-15T13:58:24;6.03;;;1.80;;
3347;SDS011;1687;49.540;8.574;2022-11-15T14:00:57;3.43;;;1.80;;
3347;SDS011;1687;49.540;8.574;2022-11-15T14:03:29;3.87;;;2.40;;
3347;SDS011;1687;49.540;8.574;2022-11-15T14:06:11;2.60;;;1.33;;
3347;SDS011;1687;49.540;8.574;2022-11-15T14:08:42;3.60;;;1.93;;
3347;SDS011;1687;49.540;8.574;2022-11-15T14:11:49;1.50;;;0.90;;
3347;SDS011;1687;49.540;8.574;2022-11-15T14:14:23;3.00;;;2.00;;
3347;SDS011;1687;49.540;8.574;2022-11-15T14:16:52;4.37;;;1.33;;
3347;SDS011;1687;49.540;8.574;2022-11-15T14:24:36;2.60;;;1.60;;
3347;SDS011;1687;49.540;8.574;2022-11-15T14:27:19;2.40;;;1.07;;
3347;SDS011;1687;49.540;8.574;2022-11-15T14:29:51;1.70;;;1.00;;
3347;SDS011;1687;49.540;8.574;2022-11-15T14:32:19;4.37;;;1.80;;
3347;SDS011;1687;49.540;8.574;2022-11-15T14:34:49;7.63;;;1.77;;
3347;SDS011;1687;49.540;8.574;2022-11-15T14:37:27;2.03;;;1.20;;
3347;SDS011;1687;49.540;8.574;2022-11-15T14:40:00;9.13;;;1.63;;
3347;SDS011;1687;49.540;8.574;2022-11-15T14:42:29;4.07;;;1.17;;
3347;SDS011;1687;49.540;8.574;2022-11-15T14:44:54;2.40;;;1.23;;
3347;SDS011;1687;49.540;8.574;2022-11-15T14:47:20;3.63;;;1.73;;
3347;SDS011;1687;49.540;8.574;2022-11-15T14:49:46;3.00;;;1.67;;
3347;SDS011;1687;49.540;8.574;2022-11-15T14:52:28;1.37;;;0.80;;
3347;SDS011;1687;49.540;8.574;2022-11-15T14:54:59;4.20;;;1.43;;
3347;SDS011;1687;49.540;8.574;2022-11-15T14:57:27;4.20;;;1.60;;
3347;SDS011;1687;49.540;8.574;2022-11-15T14:59:53;4.23;;;1.83;;
3347;SDS011;1687;49.540;8.574;2022-11-15T15:02:20;2.40;;;1.43;;
3347;SDS011;1687;49.540;8.574;2022-11-15T15:04:49;3.77;;;1.93;;
3347;SDS011;1687;49.540;8.574;2022-11-15T15:07:15;6.20;;;2.60;;
3347;SDS011;1687;49.540;8.574;2022-11-15T15:09:42;7.50;;;1.83;;
3347;SDS011;1687;49.540;8.574;2022-11-15T15:12:16;3.07;;;1.50;;
3347;SDS011;1687;49.540;8.574;2022-11-15T15:14:44;3.20;;;1.40;;
3347;SDS011;1687;49.540;8.574;2022-11-15T15:17:11;3.03;;;2.00;;
3347;SDS011;1687;49.540;8.574;2022-11-15T15:19:36;5.50;;;1.67;;
3347;SDS011;1687;49.540;8.574;2022-11-15T15:22:02;7.83;;;2.33;;
3347;SDS011;1687;49.540;8.574;2022-11-15T15:24:28;5.10;;;1.90;;
3347;SDS011;1687;49.540;8.574;2022-11-15T15:26:54;3.97;;;1.80;;
3347;SDS011;1687;49.540;8.574;2022-11-15T15:29:19;3.93;;;2.03;;
3347;SDS011;1687;49.540;8.574;2022-11-15T15:31:45;4.20;;;2.83;;
3347;SDS011;1687;49.540;8.574;2022-11-15T15:34:10;8.37;;;2.33;;
3347;SDS011;1687;49.540;8.574;2022-11-15T15:36:36;5.80;;;2.13;;
3347;SDS011;1687;49.540;8.574;2022-11-15T15:39:02;4.40;;;2.50;;
3347;SDS011;1687;49.540;8.574;2022-11-15T15:41:28;5.73;;;2.23;;
3347;SDS011;1687;49.540;8.574;2022-11-15T15:43:53;6.50;;;2.87;;
3347;SDS011;1687;49.540;8.574;2022-11-15T15:46:20;2.80;;;1.97;;
3347;SDS011;1687;49.540;8.574;2022-11-15T15:48:46;10.50;;;4.80;;
3347;SDS011;1687;49.540;8.574;2022-11-15T15:51:12;8.07;;;3.77;;
3347;SDS011;1687;49.540;8.574;2022-11-15T15:53:38;5.80;;;2.97;;
3347;SDS011;1687;49.540;8.574;2022-11-15T15:56:04;14.10;;;6.70;;
3347;SDS011;1687;49.540;8.574;2022-11-15T15:58:32;10.77;;;4.57;;
3347;SDS011;1687;49.540;8.574;2022-11-15T16:00:59;11.47;;;4.27;;
3347;SDS011;1687;49.540;8.574;2022-11-15T16:03:24;8.53;;;3.90;;
3347;SDS011;1687;49.540;8.574;2022-11-15T16:05:52;7.20;;;4.27;;
3347;SDS011;1687;49.540;8.574;2022-11-15T16:08:18;5.83;;;2.23;;
3347;SDS011;1687;49.540;8.574;2022-11-15T16:10:47;7.43;;;3.10;;
3347;SDS011;1687;49.540;8.574;2022-11-15T16:13:14;3.53;;;2.00;;
3347;SDS011;1687;49.540;8.574;2022-11-15T16:15:40;2.43;;;1.33;;
3347;SDS011;1687;49.540;8.574;2022-11-15T16:18:08;3.20;;;1.60;;
3347;SDS011;1687;49.540;8.574;2022-11-15T16:20:48;5.50;;;2.23;;
3347;SDS011;1687;49.540;8.574;2022-11-15T16:23:17;4.50;;;2.87;;
3347;SDS011;1687;49.540;8.574;2022-11-15T16:25:51;5.33;;;3.33;;
3347;SDS011;1687;49.540;8.574;2022-11-15T16:28:23;3.23;;;1.80;;
3347;SDS011;1687;49.540;8.574;2022-11-15T16:31:04;5.03;;;1.60;;
3347;SDS011;1687;49.540;8.574;2022-11-15T16:33:34;7.30;;;2.30;;
3347;SDS011;1687;49.540;8.574;2022-11-15T16:36:01;3.43;;;2.00;;
3347;SDS011;1687;49.540;8.574;2022-11-15T16:38:41;3.90;;;2.07;;
3347;SDS011;1687;49.540;8.574;2022-11-15T16:41:07;5.70;;;2.70;;
3347;SDS011;1687;49.540;8.574;2022-11-15T16:43:33;8.63;;;2.30;;
3347;SDS011;1687;49.540;8.574;2022-11-15T16:45:59;4.80;;;2.73;;
3347;SDS011;1687;49.540;8.574;2022-11-15T16:48:38;8.70;;;2.63;;
3347;SDS011;1687;49.540;8.574;2022-11-15T16:51:04;12.03;;;3.30;;
3347;SDS011;1687;49.540;8.574;2022-11-15T16:53:30;6.93;;;2.50;;
3347;SDS011;1687;49.540;8.574;2022-11-15T16:55:56;5.30;;;3.07;;
3347;SDS011;1687;49.540;8.574;2022-11-15T16:58:22;6.03;;;2.87;;
3347;SDS011;1687;49.540;8.574;2022-11-15T17:00:49;8.43;;;3.30;;
3347;SDS011;1687;49.540;8.574;2022-11-15T17:03:17;10.57;;;3.63;;
3347;SDS011;1687;49.540;8.574;2022-11-15T17:05:43;5.00;;;3.00;;
3347;SDS011;1687;49.540;8.574;2022-11-15T17:08:09;13.80;;;3.87;;
3347;SDS011;1687;49.540;8.574;2022-11-15T17:10:37;13.10;;;2.90;;
3347;SDS011;1687;49.540;8.574;2022-11-15T17:13:05;7.63;;;3.60;;
3347;SDS011;1687;49.540;8.574;2022-11-15T17:15:34;12.37;;;3.27;;
3347;SDS011;1687;49.540;8.574;2022-11-15T17:18:00;6.17;;;3.50;;
3347;SDS011;1687;49.540;8.574;2022-11-15T17:20:25;8.27;;;3.37;;
3347;SDS011;1687;49.540;8.574;2022-11-15T17:22:51;4.40;;;2.53;;
3347;SDS011;1687;49.540;8.574;2022-11-15T17:25:17;26.30;;;4.17;;
3347;SDS011;1687;49.540;8.574;2022-11-15T17:27:43;8.37;;;3.70;;
3347;SDS011;1687;49.540;8.574;2022-11-15T17:30:09;8.63;;;4.40;;
3347;SDS011;1687;49.540;8.574;2022-11-15T17:32:39;7.57;;;5.97;;
3347;SDS011;1687;49.540;8.574;2022-11-15T17:35:05;9.80;;;3.87;;
3347;SDS011;1687;49.540;8.574;2022-11-15T17:37:32;7.67;;;3.80;;
3347;SDS011;1687;49.540;8.574;2022-11-15T17:39:58;20.23;;;5.90;;
3347;SDS011;1687;49.540;8.574;2022-11-15T17:42:24;10.43;;;4.57;;
3347;SDS011;1687;49.540;8.574;2022-11-15T17:44:49;7.73;;;3.40;;